createdAt,value
2018-11-06T00:00:58.093Z,94.40
2018-11-06T00:03:31.762Z,94.40
2018-11-06T00:05:59.953Z,94.40
2018-11-06T00:08:28.115Z,94.40
2018-11-06T00:10:56.253Z,94.60
2018-11-06T00:13:24.447Z,94.50
2018-11-06T00:15:52.597Z,94.50
2018-11-06T00:18:20.810Z,94.60
2018-11-06T00:20:48.979Z,94.60
2018-11-06T00:23:17.170Z,95.10
2018-11-06T00:25:45.367Z,94.80
2018-11-06T00:28:13.899Z,94.90
2018-11-06T00:30:42.072Z,94.90
2018-11-06T00:33:10.222Z,94.90
2018-11-06T00:35:38.395Z,94.80
2018-11-06T00:38:06.565Z,94.90
2018-11-06T00:40:34.731Z,94.90
2018-11-06T00:43:02.883Z,95.00
2018-11-06T00:45:31.054Z,95.10
2018-11-06T00:47:59.247Z,95.10
2018-11-06T00:50:27.444Z,95.10
2018-11-06T00:52:55.614Z,95.10
2018-11-06T00:55:23.775Z,95.10
2018-11-06T00:57:51.951Z,95.10
2018-11-06T01:00:20.270Z,95.10
2018-11-06T01:02:48.783Z,95.20
2018-11-06T01:05:17.599Z,95.30
2018-11-06T01:07:47.641Z,95.60
2018-11-06T01:10:15.781Z,95.30
2018-11-06T01:12:43.934Z,95.40
2018-11-06T01:15:13.267Z,95.30
2018-11-06T01:17:42.010Z,95.20
2018-11-06T01:20:13.274Z,95.40
2018-11-06T01:22:41.466Z,95.40
2018-11-06T01:25:10.221Z,95.40
2018-11-06T01:27:38.602Z,95.50
2018-11-06T01:30:15.110Z,95.40
2018-11-06T01:32:44.079Z,95.30
2018-11-06T01:35:13.289Z,95.30
2018-11-06T01:37:42.245Z,95.30
2018-11-06T01:40:12.361Z,95.20
2018-11-06T01:42:40.961Z,95.20
2018-11-06T01:45:11.102Z,95.10
2018-11-06T01:47:39.554Z,95.30
2018-11-06T01:50:09.054Z,95.30
2018-11-06T01:52:37.704Z,95.40
2018-11-06T01:55:06.270Z,95.40
2018-11-06T01:57:34.450Z,95.50
2018-11-06T02:00:02.639Z,95.50
2018-11-06T02:02:31.103Z,95.50
2018-11-06T02:04:59.289Z,95.50
2018-11-06T02:07:27.472Z,95.40
2018-11-06T02:09:55.655Z,95.50
2018-11-06T02:12:23.819Z,95.60
2018-11-06T02:14:51.993Z,95.60
2018-11-06T02:17:20.207Z,95.60
2018-11-06T02:19:48.562Z,95.60
2018-11-06T02:22:16.730Z,95.70
2018-11-06T02:24:44.919Z,95.60
2018-11-06T02:27:13.079Z,95.60
2018-11-06T02:29:41.238Z,95.70
2018-11-06T02:32:09.483Z,95.80
2018-11-06T02:34:37.574Z,95.80
2018-11-06T02:37:05.724Z,95.80
2018-11-06T02:39:33.938Z,95.80
2018-11-06T02:42:02.077Z,95.80
2018-11-06T02:44:30.219Z,95.80
2018-11-06T02:46:59.018Z,95.70
2018-11-06T02:49:27.155Z,95.70
2018-11-06T02:51:55.330Z,95.70
2018-11-06T02:54:23.503Z,95.60
2018-11-06T02:56:51.677Z,95.70
2018-11-06T02:59:19.821Z,95.80
2018-11-06T03:01:47.976Z,95.70
2018-11-06T03:04:16.143Z,95.70
2018-11-06T03:06:44.276Z,95.80
2018-11-06T03:09:12.470Z,95.90
2018-11-06T03:11:40.621Z,95.80
2018-11-06T03:14:08.805Z,95.80
2018-11-06T03:16:36.936Z,95.70
2018-11-06T03:19:05.095Z,95.90
2018-11-06T03:21:33.229Z,95.50
2018-11-06T03:24:01.517Z,95.50
2018-11-06T03:26:29.630Z,95.30
2018-11-06T03:28:57.804Z,95.30
2018-11-06T03:31:25.969Z,95.30
2018-11-06T03:33:54.147Z,95.20
2018-11-06T03:36:22.268Z,95.10
2018-11-06T03:38:50.418Z,95.10
2018-11-06T03:41:18.578Z,95.10
2018-11-06T03:43:46.718Z,95.00
2018-11-06T03:46:14.948Z,95.00
2018-11-06T03:48:43.386Z,95.10
2018-11-06T03:51:11.506Z,95.00
2018-11-06T03:53:39.614Z,95.00
2018-11-06T03:56:08.468Z,95.10
2018-11-06T03:58:36.592Z,95.00
2018-11-06T04:01:05.005Z,95.00
2018-11-06T04:03:33.147Z,94.90
2018-11-06T04:06:01.272Z,94.90
2018-11-06T04:08:29.445Z,94.80
2018-11-06T04:10:57.591Z,94.80
2018-11-06T04:13:25.713Z,94.70
2018-11-06T04:15:53.855Z,94.70
2018-11-06T04:18:21.998Z,94.80
2018-11-06T04:20:50.137Z,94.90
2018-11-06T04:23:18.253Z,94.90
2018-11-06T04:25:46.390Z,94.90
2018-11-06T04:28:14.517Z,94.90
2018-11-06T04:30:42.633Z,94.80
2018-11-06T04:33:11.021Z,94.70
2018-11-06T04:35:39.113Z,94.60
2018-11-06T04:38:07.209Z,94.60
2018-11-06T04:40:35.388Z,94.60
2018-11-06T04:43:03.471Z,94.50
2018-11-06T04:45:31.578Z,94.40
2018-11-06T04:47:59.693Z,94.50
2018-11-06T04:50:27.839Z,94.40
2018-11-06T04:52:56.050Z,94.40
2018-11-06T04:55:24.153Z,94.50
2018-11-06T04:57:52.258Z,94.50
2018-11-06T05:00:20.385Z,94.60
2018-11-06T05:02:48.546Z,94.50
2018-11-06T05:05:16.917Z,94.50
2018-11-06T05:07:45.014Z,94.80
2018-11-06T05:10:14.367Z,94.80
2018-11-06T05:12:42.546Z,94.60
2018-11-06T05:15:12.361Z,94.70
2018-11-06T05:17:40.821Z,94.40
2018-11-06T05:20:11.260Z,94.50
2018-11-06T05:22:39.388Z,94.60
2018-11-06T05:25:08.157Z,94.50
2018-11-06T05:27:36.537Z,94.80
2018-11-06T05:30:05.271Z,94.40
2018-11-06T05:32:33.377Z,94.10
2018-11-06T05:35:01.578Z,93.90
2018-11-06T05:37:29.886Z,94.00
2018-11-06T05:40:09.501Z,94.10
2018-11-06T05:42:37.650Z,94.10
2018-11-06T05:45:05.978Z,94.50
2018-11-06T05:47:34.145Z,94.70
2018-11-06T05:50:02.634Z,94.80
2018-11-06T05:52:30.727Z,94.50
2018-11-06T05:54:58.865Z,94.50
2018-11-06T05:57:27.050Z,94.40
2018-11-06T05:59:55.170Z,94.40
2018-11-06T06:02:23.287Z,94.40
2018-11-06T06:04:51.413Z,94.80
2018-11-06T06:07:19.513Z,94.50
2018-11-06T06:09:47.608Z,94.90
2018-11-06T06:12:15.738Z,94.50
2018-11-06T06:14:43.874Z,94.50
2018-11-06T06:17:12.042Z,94.50
2018-11-06T06:19:40.102Z,94.50
2018-11-06T06:22:08.245Z,94.40
2018-11-06T06:24:36.649Z,94.40
2018-11-06T06:27:04.978Z,94.40
2018-11-06T06:29:33.081Z,94.40
2018-11-06T06:32:01.238Z,94.50
2018-11-06T06:34:29.389Z,94.20
2018-11-06T06:36:57.680Z,94.20
2018-11-06T06:39:25.781Z,94.00
2018-11-06T06:41:53.901Z,94.10
2018-11-06T06:44:22.038Z,94.10
2018-11-06T06:46:50.121Z,94.00
2018-11-06T06:49:18.272Z,94.00
2018-11-06T06:51:46.430Z,94.00
2018-11-06T06:54:14.644Z,94.00
2018-11-06T06:56:42.670Z,93.90
2018-11-06T06:59:10.872Z,94.00
2018-11-06T07:01:39.062Z,93.90
2018-11-06T07:04:07.200Z,93.90
2018-11-06T07:06:35.293Z,94.20
2018-11-06T07:09:04.553Z,94.20
2018-11-06T07:11:32.701Z,94.20
2018-11-06T07:14:00.824Z,93.90
2018-11-06T07:16:28.949Z,93.40
2018-11-06T07:18:57.070Z,93.30
2018-11-06T07:21:25.234Z,93.30
2018-11-06T07:23:53.365Z,93.30
2018-11-06T07:26:21.530Z,93.20
2018-11-06T07:28:49.723Z,93.10
2018-11-06T07:31:17.782Z,93.10
2018-11-06T07:33:45.887Z,92.90
2018-11-06T07:36:14.006Z,92.80
2018-11-06T07:38:42.142Z,92.60
2018-11-06T07:41:10.393Z,92.60
2018-11-06T07:43:38.422Z,92.40
2018-11-06T07:46:06.546Z,92.30
2018-11-06T07:48:34.654Z,92.20
2018-11-06T07:51:02.766Z,92.10
2018-11-06T07:53:30.925Z,92.00
2018-11-06T07:55:59.030Z,92.00
2018-11-06T07:58:27.174Z,92.00
2018-11-06T08:00:55.321Z,91.90
2018-11-06T08:03:23.422Z,91.70
2018-11-06T08:05:51.545Z,91.70
2018-11-06T08:08:19.653Z,91.60
2018-11-06T08:10:47.766Z,91.50
2018-11-06T08:13:15.936Z,91.50
2018-11-06T08:15:44.095Z,91.30
2018-11-06T08:18:12.267Z,91.30
2018-11-06T08:20:40.445Z,91.30
2018-11-06T08:23:08.515Z,91.40
2018-11-06T08:25:36.676Z,91.30
2018-11-06T08:28:05.222Z,91.60
2018-11-06T08:30:33.443Z,91.30
2018-11-06T08:33:01.447Z,91.40
2018-11-06T08:35:29.701Z,91.40
2018-11-06T08:37:57.845Z,91.60
2018-11-06T08:40:25.950Z,91.70
2018-11-06T08:42:54.077Z,91.70
2018-11-06T08:45:22.231Z,91.70
2018-11-06T08:47:50.347Z,91.70
2018-11-06T08:50:19.226Z,91.70
2018-11-06T08:52:47.367Z,91.70
2018-11-06T08:55:16.179Z,91.60
2018-11-06T08:57:44.822Z,91.60
2018-11-06T09:00:14.923Z,91.50
2018-11-06T09:02:44.273Z,91.40
2018-11-06T09:05:13.685Z,91.30
2018-11-06T09:07:41.783Z,91.20
2018-11-06T09:10:11.190Z,91.10
2018-11-06T09:12:39.743Z,91.20
2018-11-06T09:15:09.449Z,91.00
2018-11-06T09:17:38.161Z,91.00
2018-11-06T09:20:08.101Z,90.80
2018-11-06T09:22:36.442Z,90.60
2018-11-06T09:25:06.062Z,90.50
2018-11-06T09:27:34.165Z,90.40
2018-11-06T09:30:02.670Z,90.30
2018-11-06T09:32:30.776Z,90.00
2018-11-06T09:34:58.931Z,90.00
2018-11-06T09:37:27.028Z,89.90
2018-11-06T09:39:55.143Z,89.60
2018-11-06T09:42:23.269Z,89.10
2018-11-06T09:44:51.711Z,88.50
2018-11-06T09:47:19.819Z,88.20
2018-11-06T09:49:47.945Z,88.20
2018-11-06T09:52:16.430Z,87.80
2018-11-06T09:54:44.528Z,87.10
2018-11-06T09:57:12.635Z,86.40
2018-11-06T09:59:40.786Z,85.90
2018-11-06T10:02:09.198Z,85.70
2018-11-06T10:04:37.318Z,85.90
2018-11-06T10:07:06.229Z,85.80
2018-11-06T10:09:34.077Z,85.90
2018-11-06T10:12:02.200Z,86.20
2018-11-06T10:14:30.326Z,86.10
2018-11-06T10:16:58.454Z,86.30
2018-11-06T10:19:26.571Z,86.50
2018-11-06T10:21:54.683Z,86.10
2018-11-06T10:24:22.853Z,85.80
2018-11-06T10:26:51.065Z,85.30
2018-11-06T10:29:19.170Z,84.90
2018-11-06T10:31:47.309Z,84.40
2018-11-06T10:34:15.416Z,84.10
2018-11-06T10:36:43.521Z,83.80
2018-11-06T10:39:13.465Z,83.70
2018-11-06T10:41:41.575Z,83.80
2018-11-06T10:44:09.673Z,83.00
2018-11-06T10:46:38.170Z,82.90
2018-11-06T10:49:07.018Z,82.50
2018-11-06T10:51:35.179Z,81.50
2018-11-06T10:54:03.309Z,81.20
2018-11-06T10:56:31.546Z,81.30
2018-11-06T10:58:59.637Z,81.40
2018-11-06T11:01:33.312Z,82.00
2018-11-06T11:04:06.945Z,81.00
2018-11-06T11:06:35.118Z,81.00
2018-11-06T11:09:03.229Z,80.80
2018-11-06T11:11:31.385Z,79.70
2018-11-06T11:13:59.537Z,79.20
2018-11-06T11:16:27.666Z,78.20
2018-11-06T11:18:55.791Z,77.90
2018-11-06T11:21:24.756Z,76.80
2018-11-06T11:23:53.118Z,75.50
2018-11-06T11:26:21.229Z,74.70
2018-11-06T11:28:49.357Z,73.10
2018-11-06T11:31:17.595Z,72.20
2018-11-06T11:33:45.619Z,72.00
2018-11-06T11:36:13.730Z,71.30
2018-11-06T11:38:41.881Z,70.60
2018-11-06T11:41:10.114Z,70.30
2018-11-06T11:43:38.241Z,69.90
2018-11-06T11:46:06.385Z,69.80
2018-11-06T11:48:34.513Z,69.40
2018-11-06T11:51:02.644Z,69.20
2018-11-06T11:53:30.854Z,69.10
2018-11-06T11:55:58.970Z,68.70
2018-11-06T11:58:27.116Z,68.10
2018-11-06T12:00:55.213Z,67.50
2018-11-06T12:03:23.365Z,67.00
2018-11-06T12:05:51.493Z,67.20
2018-11-06T12:08:19.590Z,66.40
2018-11-06T12:10:47.741Z,66.20
2018-11-06T12:13:15.834Z,65.50
2018-11-06T12:15:43.949Z,64.30
2018-11-06T12:18:12.124Z,63.50
2018-11-06T12:20:40.561Z,63.70
2018-11-06T12:23:08.685Z,63.80
2018-11-06T12:25:37.028Z,63.90
2018-11-06T12:28:05.189Z,64.10
2018-11-06T12:30:33.352Z,64.00
2018-11-06T12:33:01.462Z,63.70
2018-11-06T12:35:29.592Z,63.60
2018-11-06T12:37:57.725Z,62.50
2018-11-06T12:40:25.868Z,62.30
2018-11-06T12:42:54.001Z,61.90
2018-11-06T12:45:22.097Z,61.50
2018-11-06T12:47:50.231Z,61.60
2018-11-06T12:50:18.642Z,61.40
2018-11-06T12:52:46.722Z,60.60
2018-11-06T12:55:15.740Z,59.80
2018-11-06T12:57:43.919Z,59.40
2018-11-06T13:00:15.005Z,58.60
2018-11-06T13:02:43.146Z,58.00
2018-11-06T13:05:11.281Z,58.30
2018-11-06T13:07:40.617Z,58.50
2018-11-06T13:10:09.522Z,59.00
2018-11-06T13:12:37.746Z,59.00
2018-11-06T13:15:06.370Z,59.00
2018-11-06T13:17:34.930Z,58.60
2018-11-06T13:20:03.052Z,57.90
2018-11-06T13:22:31.213Z,57.80
2018-11-06T13:24:59.323Z,57.50
2018-11-06T13:27:27.445Z,57.50
2018-11-06T13:29:55.589Z,57.60
2018-11-06T13:32:23.732Z,57.50
2018-11-06T13:34:51.837Z,57.90
2018-11-06T13:37:19.977Z,58.70
2018-11-06T13:39:48.132Z,59.60
2018-11-06T13:42:16.299Z,59.80
2018-11-06T13:44:44.726Z,60.40
2018-11-06T13:47:12.478Z,60.80
2018-11-06T13:49:40.589Z,61.60
2018-11-06T13:52:08.815Z,62.40
2018-11-06T13:54:36.829Z,63.40
2018-11-06T13:57:05.370Z,64.10
2018-11-06T13:59:33.479Z,65.00
2018-11-06T14:02:01.705Z,65.70
2018-11-06T14:04:30.202Z,66.00
2018-11-06T14:06:58.397Z,66.30
2018-11-06T14:09:26.515Z,66.40
2018-11-06T14:11:54.637Z,66.70
2018-11-06T14:14:22.769Z,66.90
2018-11-06T14:16:50.925Z,67.10
2018-11-06T14:19:19.046Z,67.10
2018-11-06T14:21:47.182Z,67.40
2018-11-06T14:24:15.350Z,67.70
2018-11-06T14:26:43.473Z,67.70
2018-11-06T14:29:11.643Z,68.00
2018-11-06T14:31:39.726Z,68.40
2018-11-06T14:34:07.865Z,68.50
2018-11-06T14:36:35.978Z,68.90
2018-11-06T14:39:05.464Z,69.10
2018-11-06T14:41:33.587Z,69.30
2018-11-06T14:44:01.726Z,69.40
2018-11-06T14:46:30.049Z,69.60
2018-11-06T14:48:58.291Z,70.20
2018-11-06T14:51:26.395Z,70.70
2018-11-06T14:53:54.496Z,71.20
2018-11-06T14:56:22.593Z,71.80
2018-11-06T14:58:50.830Z,72.50
2018-11-06T15:01:18.925Z,73.00
2018-11-06T15:03:47.017Z,73.80
2018-11-06T15:06:15.142Z,74.50
2018-11-06T15:08:43.301Z,75.40
2018-11-06T15:11:11.450Z,76.20
2018-11-06T15:13:39.659Z,76.60
2018-11-06T15:16:09.122Z,76.80
2018-11-06T15:18:37.225Z,76.70
2018-11-06T15:21:05.699Z,76.70
2018-11-06T15:23:34.072Z,77.40
2018-11-06T15:26:02.254Z,77.90
2018-11-06T15:28:30.382Z,77.80
2018-11-06T15:30:58.537Z,77.90
2018-11-06T15:33:26.824Z,78.00
2018-11-06T15:35:54.913Z,78.40
2018-11-06T15:38:23.036Z,78.90
2018-11-06T15:40:53.243Z,79.40
2018-11-06T15:43:21.303Z,79.70
2018-11-06T15:45:49.456Z,80.70
2018-11-06T15:48:17.587Z,80.50
2018-11-06T15:50:45.730Z,80.90
2018-11-06T15:53:13.909Z,81.30
2018-11-06T15:55:42.050Z,81.60
2018-11-06T15:58:10.149Z,81.90
2018-11-06T16:00:38.352Z,82.00
2018-11-06T16:03:06.458Z,82.30
2018-11-06T16:05:34.541Z,82.50
2018-11-06T16:08:02.702Z,82.10
2018-11-06T16:10:30.778Z,82.30
2018-11-06T16:12:58.897Z,82.30
2018-11-06T16:15:27.096Z,82.10
2018-11-06T16:17:55.269Z,81.80
2018-11-06T16:20:23.507Z,81.40
2018-11-06T16:22:51.693Z,81.40
2018-11-06T16:25:20.394Z,81.20
2018-11-06T16:27:48.861Z,81.10
2018-11-06T16:30:18.224Z,81.10
2018-11-06T16:32:46.451Z,81.40
2018-11-06T16:35:16.826Z,81.60
2018-11-06T16:37:45.389Z,81.90
2018-11-06T16:40:14.110Z,82.30
2018-11-06T16:42:43.179Z,82.80
2018-11-06T16:45:13.733Z,83.00
2018-11-06T16:47:42.533Z,83.90
2018-11-06T16:50:11.969Z,83.50
2018-11-06T16:52:40.273Z,83.60
2018-11-06T16:55:08.844Z,83.60
2018-11-06T16:57:37.437Z,84.00
2018-11-06T17:00:07.417Z,83.80
2018-11-06T17:02:35.558Z,84.70
2018-11-06T17:05:03.866Z,84.10
2018-11-06T17:07:31.962Z,84.20
2018-11-06T17:10:00.087Z,84.10
2018-11-06T17:12:28.281Z,84.00
2018-11-06T17:14:56.382Z,84.10
2018-11-06T17:17:24.571Z,84.20
2018-11-06T17:19:52.634Z,84.40
2018-11-06T17:22:20.779Z,84.50
2018-11-06T17:24:48.963Z,84.40
2018-11-06T17:27:17.013Z,84.30
2018-11-06T17:29:45.156Z,84.20
2018-11-06T17:32:13.278Z,84.40
2018-11-06T17:34:41.408Z,84.40
2018-11-06T17:37:09.614Z,84.50
2018-11-06T17:39:37.910Z,84.80
2018-11-06T17:42:05.935Z,85.20
2018-11-06T17:44:34.057Z,85.50
2018-11-06T17:47:02.203Z,85.80
2018-11-06T17:49:30.450Z,86.20
2018-11-06T17:51:58.553Z,86.40
2018-11-06T17:54:26.637Z,86.80
2018-11-06T17:56:54.810Z,86.90
2018-11-06T17:59:22.941Z,87.00
2018-11-06T18:01:52.156Z,87.30
2018-11-06T18:04:20.386Z,87.60
2018-11-06T18:06:48.435Z,88.00
2018-11-06T18:09:16.529Z,88.30
2018-11-06T18:11:44.702Z,88.60
2018-11-06T18:14:12.841Z,88.80
2018-11-06T18:16:41.005Z,89.00
2018-11-06T18:19:09.101Z,89.30
2018-11-06T18:21:37.550Z,89.20
2018-11-06T18:24:06.058Z,89.30
2018-11-06T18:26:34.219Z,89.30
2018-11-06T18:29:02.378Z,89.50
2018-11-06T18:31:30.548Z,89.50
2018-11-06T18:33:58.650Z,89.60
2018-11-06T18:36:26.766Z,90.00
2018-11-06T18:38:54.942Z,90.00
2018-11-06T18:41:23.093Z,90.00
2018-11-06T18:43:51.209Z,90.10
2018-11-06T18:46:19.417Z,90.10
2018-11-06T18:48:47.547Z,90.30
2018-11-06T18:51:15.776Z,90.40
2018-11-06T18:53:43.929Z,90.30
2018-11-06T18:56:12.123Z,90.20
2018-11-06T18:58:40.567Z,90.00
2018-11-06T19:01:08.689Z,90.00
2018-11-06T19:03:36.799Z,90.00
2018-11-06T19:06:05.274Z,89.70
2018-11-06T19:08:33.401Z,89.70
2018-11-06T19:11:01.542Z,89.50
2018-11-06T19:13:29.658Z,89.50
2018-11-06T19:15:57.793Z,89.30
2018-11-06T19:18:25.915Z,89.50
2018-11-06T19:20:54.110Z,89.10
2018-11-06T19:23:22.316Z,89.20
2018-11-06T19:25:50.776Z,89.10
2018-11-06T19:28:18.951Z,89.10
2018-11-06T19:30:47.125Z,89.30
2018-11-06T19:33:15.259Z,89.50
2018-11-06T19:35:43.453Z,89.70
2018-11-06T19:38:12.349Z,89.90
2018-11-06T19:40:40.550Z,89.80
2018-11-06T19:43:08.740Z,89.70
2018-11-06T19:45:36.881Z,89.70
2018-11-06T19:48:05.560Z,89.80
2018-11-06T19:50:33.721Z,89.90
2018-11-06T19:53:01.925Z,90.00
2018-11-06T19:55:30.105Z,89.90
2018-11-06T19:57:58.227Z,89.70
2018-11-06T20:00:26.415Z,89.90
2018-11-06T20:02:54.854Z,90.00
2018-11-06T20:05:23.193Z,90.00
2018-11-06T20:07:51.911Z,90.10
2018-11-06T20:10:21.342Z,90.20
2018-11-06T20:12:50.569Z,90.30
2018-11-06T20:15:18.717Z,90.40
2018-11-06T20:17:47.119Z,90.40
2018-11-06T20:20:18.179Z,90.80
2018-11-06T20:22:46.490Z,90.40
2018-11-06T20:25:14.618Z,90.50
2018-11-06T20:27:43.426Z,90.50
2018-11-06T20:30:14.037Z,90.50
2018-11-06T20:32:42.341Z,90.70
2018-11-06T20:35:11.497Z,90.60
2018-11-06T20:37:39.721Z,90.60
2018-11-06T20:40:10.072Z,90.50
2018-11-06T20:42:38.563Z,90.50
2018-11-06T20:45:08.569Z,90.60
2018-11-06T20:47:36.762Z,90.60
2018-11-06T20:50:07.394Z,90.60
2018-11-06T20:52:35.486Z,90.60
2018-11-06T20:55:03.779Z,90.60
2018-11-06T20:57:31.900Z,90.50
2018-11-06T21:00:00.210Z,90.50
2018-11-06T21:02:28.178Z,90.50
2018-11-06T21:04:56.341Z,90.60
2018-11-06T21:07:25.153Z,90.60
2018-11-06T21:09:53.278Z,90.50
2018-11-06T21:12:21.426Z,90.50
2018-11-06T21:14:49.546Z,90.50
2018-11-06T21:17:17.697Z,90.50
2018-11-06T21:19:45.843Z,90.50
2018-11-06T21:22:13.936Z,90.50
2018-11-06T21:24:42.085Z,90.50
2018-11-06T21:27:10.281Z,90.50
2018-11-06T21:29:38.361Z,90.50
2018-11-06T21:32:06.519Z,90.50
2018-11-06T21:34:34.954Z,90.40
2018-11-06T21:37:03.067Z,90.50
2018-11-06T21:39:31.180Z,90.40
2018-11-06T21:41:59.461Z,90.40
2018-11-06T21:44:27.590Z,90.40
2018-11-06T21:46:55.721Z,90.30
2018-11-06T21:49:24.126Z,90.60
2018-11-06T21:51:52.246Z,90.30
2018-11-06T21:54:20.384Z,90.20
2018-11-06T21:56:48.613Z,90.20
2018-11-06T21:59:16.758Z,90.30
2018-11-06T22:01:44.982Z,90.20
2018-11-06T22:04:13.150Z,90.20
2018-11-06T22:06:41.322Z,90.20
2018-11-06T22:09:09.834Z,90.20
2018-11-06T22:11:38.043Z,90.10
2018-11-06T22:14:06.663Z,90.10
2018-11-06T22:16:34.763Z,90.10
2018-11-06T22:19:02.898Z,90.00
2018-11-06T22:21:31.387Z,90.00
2018-11-06T22:23:59.754Z,89.90
2018-11-06T22:26:27.886Z,90.00
2018-11-06T22:28:56.259Z,89.90
2018-11-06T22:31:24.421Z,89.90
2018-11-06T22:33:52.504Z,89.90
2018-11-06T22:36:20.669Z,89.70
2018-11-06T22:38:48.938Z,89.60
2018-11-06T22:41:17.041Z,89.50
2018-11-06T22:43:45.183Z,89.70
2018-11-06T22:46:13.261Z,89.70
2018-11-06T22:48:41.396Z,90.00
2018-11-06T22:51:09.520Z,90.00
2018-11-06T22:53:37.618Z,90.00
2018-11-06T22:56:05.718Z,90.00
2018-11-06T22:58:33.882Z,90.00
2018-11-06T23:01:07.494Z,90.00
2018-11-06T23:03:35.649Z,89.80
2018-11-06T23:06:04.160Z,89.90
2018-11-06T23:08:32.239Z,90.00
2018-11-06T23:11:00.347Z,90.00
2018-11-06T23:13:28.473Z,90.00
2018-11-06T23:15:56.601Z,90.00
2018-11-06T23:18:24.725Z,90.00
2018-11-06T23:20:52.891Z,90.10
2018-11-06T23:23:20.991Z,90.10
2018-11-06T23:25:49.113Z,90.20
2018-11-06T23:28:17.289Z,90.30
2018-11-06T23:30:45.422Z,90.20
2018-11-06T23:33:13.545Z,90.20
2018-11-06T23:35:41.682Z,90.20
2018-11-06T23:38:09.766Z,90.10
2018-11-06T23:40:37.891Z,90.10
2018-11-06T23:43:06.034Z,90.10
2018-11-06T23:45:34.137Z,90.10
2018-11-06T23:48:02.666Z,89.80
2018-11-06T23:50:30.773Z,89.70
2018-11-06T23:52:58.890Z,89.30
2018-11-06T23:55:27.013Z,88.90
2018-11-06T23:57:55.162Z,88.90
